sensor_id;sensor_type;location;lat;lon;timestamp;P1;durP1;ratioP1;P2;durP2;ratioP2
4391;SDS011;2210;51.938;8.488;2023-04-25T00:03:14;9.60;;;5.37;;
4391;SDS011;2210;51.938;8.488;2023-04-25T00:07:15;10.50;;;5.07;;
4391;SDS011;2210;51.938;8.488;2023-04-25T00:11:20;11.57;;;5.37;;
4391;SDS011;2210;51.938;8.488;2023-04-25T00:15:20;11.33;;;5.33;;
4391;SDS011;2210;51.938;8.488;2023-04-25T00:19:27;7.70;;;4.00;;
4391;SDS011;2210;51.938;8.488;2023-04-25T00:23:31;6.07;;;4.47;;
4391;SDS011;2210;51.938;8.488;2023-04-25T00:27:31;10.80;;;3.60;;
4391;SDS011;2210;51.938;8.488;2023-04-25T00:31:32;7.40;;;4.27;;
4391;SDS011;2210;51.938;8.488;2023-04-25T00:35:32;6.00;;;3.97;;
4391;SDS011;2210;51.938;8.488;2023-04-25T00:39:32;9.23;;;3.73;;
4391;SDS011;2210;51.938;8.488;2023-04-25T00:43:36;9.33;;;4.33;;
4391;SDS011;2210;51.938;8.488;2023-04-25T00:47:37;7.47;;;4.40;;
4391;SDS011;2210;51.938;8.488;2023-04-25T00:51:38;9.23;;;4.17;;
4391;SDS011;2210;51.938;8.488;2023-04-25T00:55:38;11.60;;;4.93;;
4391;SDS011;2210;51.938;8.488;2023-04-25T00:59:38;7.77;;;4.40;;
4391;SDS011;2210;51.938;8.488;2023-04-25T01:03:44;12.93;;;5.80;;
4391;SDS011;2210;51.938;8.488;2023-04-25T01:07:46;6.93;;;4.37;;
4391;SDS011;2210;51.938;8.488;2023-04-25T01:11:47;10.53;;;5.50;;
4391;SDS011;2210;51.938;8.488;2023-04-25T01:15:51;10.20;;;3.80;;
4391;SDS011;2210;51.938;8.488;2023-04-25T01:19:51;7.90;;;3.70;;
4391;SDS011;2210;51.938;8.488;2023-04-25T01:23:51;6.03;;;4.17;;
4391;SDS011;2210;51.938;8.488;2023-04-25T01:28:05;7.33;;;3.53;;
4391;SDS011;2210;51.938;8.488;2023-04-25T01:32:06;6.50;;;4.00;;
4391;SDS011;2210;51.938;8.488;2023-04-25T01:36:07;8.70;;;3.97;;
4391;SDS011;2210;51.938;8.488;2023-04-25T01:40:13;4.60;;;3.43;;
4391;SDS011;2210;51.938;8.488;2023-04-25T01:44:15;6.70;;;4.07;;
4391;SDS011;2210;51.938;8.488;2023-04-25T01:48:15;5.37;;;3.70;;
4391;SDS011;2210;51.938;8.488;2023-04-25T01:52:25;8.50;;;3.97;;
4391;SDS011;2210;51.938;8.488;2023-04-25T01:56:32;3.87;;;3.27;;
4391;SDS011;2210;51.938;8.488;2023-04-25T02:00:33;5.60;;;4.03;;
4391;SDS011;2210;51.938;8.488;2023-04-25T02:04:33;8.53;;;4.07;;
4391;SDS011;2210;51.938;8.488;2023-04-25T02:08:33;5.90;;;3.42;;
4391;SDS011;2210;51.938;8.488;2023-04-25T02:12:33;7.73;;;3.80;;
4391;SDS011;2210;51.938;8.488;2023-04-25T02:16:35;6.47;;;3.83;;
4391;SDS011;2210;51.938;8.488;2023-04-25T02:20:35;5.17;;;3.60;;
4391;SDS011;2210;51.938;8.488;2023-04-25T02:24:36;7.43;;;3.53;;
4391;SDS011;2210;51.938;8.488;2023-04-25T02:28:36;4.72;;;3.47;;
4391;SDS011;2210;51.938;8.488;2023-04-25T02:32:36;6.47;;;3.30;;
4391;SDS011;2210;51.938;8.488;2023-04-25T02:36:37;5.40;;;3.97;;
4391;SDS011;2210;51.938;8.488;2023-04-25T02:40:37;7.97;;;4.20;;
4391;SDS011;2210;51.938;8.488;2023-04-25T02:44:37;8.63;;;3.60;;
4391;SDS011;2210;51.938;8.488;2023-04-25T02:48:37;10.10;;;3.50;;
4391;SDS011;2210;51.938;8.488;2023-04-25T02:52:41;4.88;;;3.80;;
4391;SDS011;2210;51.938;8.488;2023-04-25T02:56:44;5.47;;;3.87;;
4391;SDS011;2210;51.938;8.488;2023-04-25T03:00:44;3.33;;;2.83;;
4391;SDS011;2210;51.938;8.488;2023-04-25T03:04:45;4.93;;;3.03;;
4391;SDS011;2210;51.938;8.488;2023-04-25T03:08:46;8.17;;;2.50;;
4391;SDS011;2210;51.938;8.488;2023-04-25T03:12:49;6.05;;;2.80;;
4391;SDS011;2210;51.938;8.488;2023-04-25T03:16:49;4.37;;;2.30;;
4391;SDS011;2210;51.938;8.488;2023-04-25T03:20:49;6.40;;;3.13;;
4391;SDS011;2210;51.938;8.488;2023-04-25T03:24:50;7.57;;;2.80;;
4391;SDS011;2210;51.938;8.488;2023-04-25T03:28:50;4.17;;;2.47;;
4391;SDS011;2210;51.938;8.488;2023-04-25T03:32:50;6.72;;;2.80;;
4391;SDS011;2210;51.938;8.488;2023-04-25T03:36:51;9.50;;;2.72;;
4391;SDS011;2210;51.938;8.488;2023-04-25T03:40:54;5.67;;;2.50;;
4391;SDS011;2210;51.938;8.488;2023-04-25T03:44:56;8.07;;;3.07;;
4391;SDS011;2210;51.938;8.488;2023-04-25T03:49:02;6.65;;;2.35;;
4391;SDS011;2210;51.938;8.488;2023-04-25T03:53:02;9.50;;;2.60;;
4391;SDS011;2210;51.938;8.488;2023-04-25T03:57:15;4.77;;;2.63;;
4391;SDS011;2210;51.938;8.488;2023-04-25T04:01:15;7.23;;;3.00;;
4391;SDS011;2210;51.938;8.488;2023-04-25T04:05:15;7.47;;;2.87;;
4391;SDS011;2210;51.938;8.488;2023-04-25T04:09:16;7.90;;;2.70;;
4391;SDS011;2210;51.938;8.488;2023-04-25T04:13:19;5.53;;;3.10;;
4391;SDS011;2210;51.938;8.488;2023-04-25T04:17:19;6.03;;;2.90;;
4391;SDS011;2210;51.938;8.488;2023-04-25T04:21:19;6.20;;;2.87;;
4391;SDS011;2210;51.938;8.488;2023-04-25T04:25:20;5.80;;;2.70;;
4391;SDS011;2210;51.938;8.488;2023-04-25T04:29:20;9.77;;;2.90;;
4391;SDS011;2210;51.938;8.488;2023-04-25T04:33:21;8.83;;;3.03;;
4391;SDS011;2210;51.938;8.488;2023-04-25T04:37:23;12.00;;;3.73;;
4391;SDS011;2210;51.938;8.488;2023-04-25T04:41:26;7.40;;;2.90;;
4391;SDS011;2210;51.938;8.488;2023-04-25T04:45:26;8.87;;;3.53;;
4391;SDS011;2210;51.938;8.488;2023-04-25T04:49:30;15.07;;;3.80;;
4391;SDS011;2210;51.938;8.488;2023-04-25T04:53:33;6.87;;;3.00;;
4391;SDS011;2210;51.938;8.488;2023-04-25T04:57:34;13.70;;;2.93;;
4391;SDS011;2210;51.938;8.488;2023-04-25T05:01:41;8.70;;;2.90;;
4391;SDS011;2210;51.938;8.488;2023-04-25T05:05:41;11.63;;;3.00;;
4391;SDS011;2210;51.938;8.488;2023-04-25T05:09:45;11.50;;;3.07;;
4391;SDS011;2210;51.938;8.488;2023-04-25T05:13:45;9.23;;;3.10;;
4391;SDS011;2210;51.938;8.488;2023-04-25T05:17:45;9.47;;;4.13;;
4391;SDS011;2210;51.938;8.488;2023-04-25T05:21:45;10.80;;;3.70;;
4391;SDS011;2210;51.938;8.488;2023-04-25T05:25:49;8.07;;;3.70;;
4391;SDS011;2210;51.938;8.488;2023-04-25T05:29:49;10.53;;;2.83;;
4391;SDS011;2210;51.938;8.488;2023-04-25T05:33:49;7.57;;;3.30;;
4391;SDS011;2210;51.938;8.488;2023-04-25T05:37:50;10.53;;;4.00;;
4391;SDS011;2210;51.938;8.488;2023-04-25T05:41:50;13.90;;;3.63;;
4391;SDS011;2210;51.938;8.488;2023-04-25T05:45:50;6.90;;;2.93;;
4391;SDS011;2210;51.938;8.488;2023-04-25T05:49:51;7.30;;;3.53;;
4391;SDS011;2210;51.938;8.488;2023-04-25T05:53:54;10.27;;;3.70;;
4391;SDS011;2210;51.938;8.488;2023-04-25T05:58:00;6.83;;;3.40;;
4391;SDS011;2210;51.938;8.488;2023-04-25T06:02:04;8.57;;;3.43;;
4391;SDS011;2210;51.938;8.488;2023-04-25T06:06:04;10.20;;;3.50;;
4391;SDS011;2210;51.938;8.488;2023-04-25T06:10:04;10.33;;;3.93;;
4391;SDS011;2210;51.938;8.488;2023-04-25T06:14:06;5.07;;;3.17;;
4391;SDS011;2210;51.938;8.488;2023-04-25T06:18:13;6.50;;;3.30;;
4391;SDS011;2210;51.938;8.488;2023-04-25T06:22:13;11.30;;;3.57;;
4391;SDS011;2210;51.938;8.488;2023-04-25T06:26:14;6.88;;;3.30;;
4391;SDS011;2210;51.938;8.488;2023-04-25T06:30:14;8.50;;;3.10;;
4391;SDS011;2210;51.938;8.488;2023-04-25T06:34:15;11.43;;;5.00;;
4391;SDS011;2210;51.938;8.488;2023-04-25T06:38:21;10.53;;;3.60;;
4391;SDS011;2210;51.938;8.488;2023-04-25T06:42:21;9.93;;;4.03;;
4391;SDS011;2210;51.938;8.488;2023-04-25T06:46:22;12.60;;;6.03;;
4391;SDS011;2210;51.938;8.488;2023-04-25T06:50:22;11.53;;;4.60;;
4391;SDS011;2210;51.938;8.488;2023-04-25T06:54:22;9.60;;;3.70;;
4391;SDS011;2210;51.938;8.488;2023-04-25T06:58:24;9.47;;;2.40;;
4391;SDS011;2210;51.938;8.488;2023-04-25T07:02:26;11.20;;;3.40;;
4391;SDS011;2210;51.938;8.488;2023-04-25T07:06:26;8.95;;;2.85;;
4391;SDS011;2210;51.938;8.488;2023-04-25T07:10:30;7.47;;;3.50;;
4391;SDS011;2210;51.938;8.488;2023-04-25T07:14:31;11.30;;;3.90;;
4391;SDS011;2210;51.938;8.488;2023-04-25T07:18:31;13.33;;;3.63;;
4391;SDS011;2210;51.938;8.488;2023-04-25T07:22:34;8.20;;;3.13;;
4391;SDS011;2210;51.938;8.488;2023-04-25T07:26:35;6.70;;;2.63;;
4391;SDS011;2210;51.938;8.488;2023-04-25T07:30:35;13.57;;;3.70;;
4391;SDS011;2210;51.938;8.488;2023-04-25T07:34:36;9.53;;;2.43;;
4391;SDS011;2210;51.938;8.488;2023-04-25T07:38:40;7.87;;;2.70;;
4391;SDS011;2210;51.938;8.488;2023-04-25T07:42:40;10.67;;;2.10;;
4391;SDS011;2210;51.938;8.488;2023-04-25T07:46:43;6.80;;;2.70;;
4391;SDS011;2210;51.938;8.488;2023-04-25T07:50:44;8.90;;;2.67;;
4391;SDS011;2210;51.938;8.488;2023-04-25T07:54:45;6.40;;;2.33;;
4391;SDS011;2210;51.938;8.488;2023-04-25T07:58:45;9.90;;;2.60;;
4391;SDS011;2210;51.938;8.488;2023-04-25T08:02:50;10.40;;;2.38;;
4391;SDS011;2210;51.938;8.488;2023-04-25T08:06:51;17.17;;;3.00;;
4391;SDS011;2210;51.938;8.488;2023-04-25T08:10:52;4.57;;;2.50;;
4391;SDS011;2210;51.938;8.488;2023-04-25T08:14:52;14.73;;;3.60;;
4391;SDS011;2210;51.938;8.488;2023-04-25T08:18:53;17.03;;;2.83;;
4391;SDS011;2210;51.938;8.488;2023-04-25T08:22:53;12.60;;;3.70;;
4391;SDS011;2210;51.938;8.488;2023-04-25T08:26:54;8.07;;;2.67;;
4391;SDS011;2210;51.938;8.488;2023-04-25T08:30:54;2.97;;;1.90;;
4391;SDS011;2210;51.938;8.488;2023-04-25T08:34:54;6.88;;;1.92;;
4391;SDS011;2210;51.938;8.488;2023-04-25T08:38:58;8.20;;;2.73;;
4391;SDS011;2210;51.938;8.488;2023-04-25T08:42:58;7.50;;;2.13;;
4391;SDS011;2210;51.938;8.488;2023-04-25T08:47:03;4.23;;;1.60;;
4391;SDS011;2210;51.938;8.488;2023-04-25T08:51:04;9.47;;;2.20;;
4391;SDS011;2210;51.938;8.488;2023-04-25T08:55:07;6.07;;;1.73;;
4391;SDS011;2210;51.938;8.488;2023-04-25T08:59:09;8.83;;;2.93;;
4391;SDS011;2210;51.938;8.488;2023-04-25T09:03:10;3.83;;;1.90;;
4391;SDS011;2210;51.938;8.488;2023-04-25T09:07:11;5.13;;;2.27;;
4391;SDS011;2210;51.938;8.488;2023-04-25T09:11:12;3.13;;;2.00;;
4391;SDS011;2210;51.938;8.488;2023-04-25T09:15:12;10.03;;;3.17;;
4391;SDS011;2210;51.938;8.488;2023-04-25T09:19:22;5.37;;;1.63;;
4391;SDS011;2210;51.938;8.488;2023-04-25T09:23:24;9.97;;;1.80;;
4391;SDS011;2210;51.938;8.488;2023-04-25T09:27:25;7.10;;;1.70;;
4391;SDS011;2210;51.938;8.488;2023-04-25T09:31:26;4.80;;;1.60;;
4391;SDS011;2210;51.938;8.488;2023-04-25T09:35:27;3.65;;;1.55;;
4391;SDS011;2210;51.938;8.488;2023-04-25T09:39:28;5.20;;;1.30;;
4391;SDS011;2210;51.938;8.488;2023-04-25T09:43:28;4.10;;;1.47;;
4391;SDS011;2210;51.938;8.488;2023-04-25T09:47:29;3.80;;;1.57;;
4391;SDS011;2210;51.938;8.488;2023-04-25T09:51:32;9.60;;;1.73;;
4391;SDS011;2210;51.938;8.488;2023-04-25T09:55:32;4.40;;;1.30;;
4391;SDS011;2210;51.938;8.488;2023-04-25T09:59:46;2.60;;;1.50;;
4391;SDS011;2210;51.938;8.488;2023-04-25T10:03:48;3.63;;;1.57;;
4391;SDS011;2210;51.938;8.488;2023-04-25T10:07:50;4.30;;;1.57;;
4391;SDS011;2210;51.938;8.488;2023-04-25T10:11:51;6.63;;;1.33;;
4391;SDS011;2210;51.938;8.488;2023-04-25T10:15:53;5.80;;;1.80;;
4391;SDS011;2210;51.938;8.488;2023-04-25T10:19:54;4.97;;;1.77;;
4391;SDS011;2210;51.938;8.488;2023-04-25T10:23:54;3.70;;;1.70;;
4391;SDS011;2210;51.938;8.488;2023-04-25T10:27:55;5.60;;;1.83;;
4391;SDS011;2210;51.938;8.488;2023-04-25T10:31:55;4.22;;;1.55;;
4391;SDS011;2210;51.938;8.488;2023-04-25T10:35:57;5.40;;;1.57;;
4391;SDS011;2210;51.938;8.488;2023-04-25T10:39:58;5.37;;;1.53;;
4391;SDS011;2210;51.938;8.488;2023-04-25T10:44:09;3.73;;;1.90;;
4391;SDS011;2210;51.938;8.488;2023-04-25T10:48:25;6.90;;;1.70;;
4391;SDS011;2210;51.938;8.488;2023-04-25T10:52:27;3.20;;;1.20;;
4391;SDS011;2210;51.938;8.488;2023-04-25T10:56:29;11.33;;;2.27;;
4391;SDS011;2210;51.938;8.488;2023-04-25T11:00:31;3.07;;;1.73;;
4391;SDS011;2210;51.938;8.488;2023-04-25T11:04:33;3.07;;;1.97;;
4391;SDS011;2210;51.938;8.488;2023-04-25T11:08:46;5.20;;;1.33;;
4391;SDS011;2210;51.938;8.488;2023-04-25T11:12:48;3.27;;;1.40;;
4391;SDS011;2210;51.938;8.488;2023-04-25T11:16:55;4.45;;;1.40;;
4391;SDS011;2210;51.938;8.488;2023-04-25T11:20:58;3.63;;;1.40;;
4391;SDS011;2210;51.938;8.488;2023-04-25T11:25:04;9.83;;;1.50;;
4391;SDS011;2210;51.938;8.488;2023-04-25T11:29:04;3.73;;;1.43;;
4391;SDS011;2210;51.938;8.488;2023-04-25T11:33:05;2.87;;;1.00;;
4391;SDS011;2210;51.938;8.488;2023-04-25T11:37:05;10.35;;;1.73;;
4391;SDS011;2210;51.938;8.488;2023-04-25T11:41:06;5.27;;;1.30;;
4391;SDS011;2210;51.938;8.488;2023-04-25T11:45:07;2.20;;;1.50;;
4391;SDS011;2210;51.938;8.488;2023-04-25T11:49:07;3.00;;;1.23;;
4391;SDS011;2210;51.938;8.488;2023-04-25T11:53:14;2.20;;;1.37;;
4391;SDS011;2210;51.938;8.488;2023-04-25T11:57:20;2.23;;;1.50;;
4391;SDS011;2210;51.938;8.488;2023-04-25T12:01:30;2.90;;;1.00;;
4391;SDS011;2210;51.938;8.488;2023-04-25T12:05:35;8.60;;;1.80;;
4391;SDS011;2210;51.938;8.488;2023-04-25T12:09:37;3.57;;;1.53;;
4391;SDS011;2210;51.938;8.488;2023-04-25T12:13:41;2.37;;;1.20;;
4391;SDS011;2210;51.938;8.488;2023-04-25T12:17:50;3.33;;;1.40;;
4391;SDS011;2210;51.938;8.488;2023-04-25T12:21:51;1.53;;;1.43;;
4391;SDS011;2210;51.938;8.488;2023-04-25T12:25:52;2.10;;;1.10;;
4391;SDS011;2210;51.938;8.488;2023-04-25T12:29:55;4.60;;;1.33;;
4391;SDS011;2210;51.938;8.488;2023-04-25T12:34:03;1.80;;;1.13;;
4391;SDS011;2210;51.938;8.488;2023-04-25T12:38:03;2.40;;;1.07;;
4391;SDS011;2210;51.938;8.488;2023-04-25T12:42:03;4.90;;;1.43;;
4391;SDS011;2210;51.938;8.488;2023-04-25T12:46:04;3.37;;;1.30;;
4391;SDS011;2210;51.938;8.488;2023-04-25T12:50:04;1.93;;;1.20;;
4391;SDS011;2210;51.938;8.488;2023-04-25T12:54:05;1.70;;;1.27;;
4391;SDS011;2210;51.938;8.488;2023-04-25T12:58:07;2.50;;;1.40;;
4391;SDS011;2210;51.938;8.488;2023-04-25T13:02:07;3.00;;;1.30;;
4391;SDS011;2210;51.938;8.488;2023-04-25T13:06:07;1.97;;;1.20;;
4391;SDS011;2210;51.938;8.488;2023-04-25T13:10:08;1.73;;;0.90;;
4391;SDS011;2210;51.938;8.488;2023-04-25T13:14:08;1.80;;;0.80;;
4391;SDS011;2210;51.938;8.488;2023-04-25T13:18:08;2.10;;;1.05;;
4391;SDS011;2210;51.938;8.488;2023-04-25T13:22:09;2.63;;;1.27;;
4391;SDS011;2210;51.938;8.488;2023-04-25T13:26:09;1.17;;;0.90;;
4391;SDS011;2210;51.938;8.488;2023-04-25T13:30:10;2.70;;;1.20;;
4391;SDS011;2210;51.938;8.488;2023-04-25T13:34:10;2.77;;;0.90;;
4391;SDS011;2210;51.938;8.488;2023-04-25T13:38:12;2.80;;;0.80;;
4391;SDS011;2210;51.938;8.488;2023-04-25T13:42:13;1.70;;;0.87;;
4391;SDS011;2210;51.938;8.488;2023-04-25T13:46:13;3.83;;;1.17;;
4391;SDS011;2210;51.938;8.488;2023-04-25T13:50:15;2.43;;;0.90;;
4391;SDS011;2210;51.938;8.488;2023-04-25T13:54:16;2.50;;;1.13;;
4391;SDS011;2210;51.938;8.488;2023-04-25T13:58:16;1.97;;;1.03;;
4391;SDS011;2210;51.938;8.488;2023-04-25T14:02:16;1.60;;;1.42;;
4391;SDS011;2210;51.938;8.488;2023-04-25T14:06:16;1.70;;;1.30;;
4391;SDS011;2210;51.938;8.488;2023-04-25T14:10:22;5.93;;;1.00;;
4391;SDS011;2210;51.938;8.488;2023-04-25T14:14:22;2.72;;;1.20;;
4391;SDS011;2210;51.938;8.488;2023-04-25T14:18:23;1.77;;;1.10;;
4391;SDS011;2210;51.938;8.488;2023-04-25T14:22:24;1.43;;;0.93;;
4391;SDS011;2210;51.938;8.488;2023-04-25T14:26:25;1.73;;;1.03;;
4391;SDS011;2210;51.938;8.488;2023-04-25T14:30:26;2.00;;;1.20;;
4391;SDS011;2210;51.938;8.488;2023-04-25T14:34:26;3.63;;;1.10;;
4391;SDS011;2210;51.938;8.488;2023-04-25T14:38:26;4.80;;;1.02;;
4391;SDS011;2210;51.938;8.488;2023-04-25T14:42:27;3.30;;;1.10;;
4391;SDS011;2210;51.938;8.488;2023-04-25T14:46:27;1.97;;;1.20;;
4391;SDS011;2210;51.938;8.488;2023-04-25T14:50:27;3.27;;;1.30;;
4391;SDS011;2210;51.938;8.488;2023-04-25T14:54:27;4.63;;;1.20;;
4391;SDS011;2210;51.938;8.488;2023-04-25T14:58:28;1.23;;;1.07;;
4391;SDS011;2210;51.938;8.488;2023-04-25T15:02:28;1.83;;;1.27;;
4391;SDS011;2210;51.938;8.488;2023-04-25T15:06:28;2.13;;;1.57;;
4391;SDS011;2210;51.938;8.488;2023-04-25T15:10:30;4.90;;;1.43;;
4391;SDS011;2210;51.938;8.488;2023-04-25T15:14:30;3.70;;;1.43;;
4391;SDS011;2210;51.938;8.488;2023-04-25T15:18:30;3.60;;;1.40;;
4391;SDS011;2210;51.938;8.488;2023-04-25T15:22:31;9.95;;;1.55;;
4391;SDS011;2210;51.938;8.488;2023-04-25T15:26:31;2.95;;;0.95;;
4391;SDS011;2210;51.938;8.488;2023-04-25T15:30:31;2.33;;;1.30;;
4391;SDS011;2210;51.938;8.488;2023-04-25T15:34:31;2.93;;;1.40;;
4391;SDS011;2210;51.938;8.488;2023-04-25T15:38:32;2.90;;;1.60;;
4391;SDS011;2210;51.938;8.488;2023-04-25T15:42:32;3.60;;;1.10;;
4391;SDS011;2210;51.938;8.488;2023-04-25T15:46:32;4.20;;;1.30;;
4391;SDS011;2210;51.938;8.488;2023-04-25T15:50:32;1.50;;;1.30;;
4391;SDS011;2210;51.938;8.488;2023-04-25T15:54:33;4.90;;;1.80;;
4391;SDS011;2210;51.938;8.488;2023-04-25T15:58:36;1.90;;;1.42;;
4391;SDS011;2210;51.938;8.488;2023-04-25T16:02:37;2.63;;;1.13;;
4391;SDS011;2210;51.938;8.488;2023-04-25T16:06:38;2.83;;;1.40;;
4391;SDS011;2210;51.938;8.488;2023-04-25T16:10:38;3.40;;;1.93;;
4391;SDS011;2210;51.938;8.488;2023-04-25T16:14:38;1.83;;;1.40;;
4391;SDS011;2210;51.938;8.488;2023-04-25T16:18:39;2.13;;;1.10;;
4391;SDS011;2210;51.938;8.488;2023-04-25T16:22:40;3.40;;;1.30;;
4391;SDS011;2210;51.938;8.488;2023-04-25T16:26:41;1.50;;;1.30;;
4391;SDS011;2210;51.938;8.488;2023-04-25T16:30:45;2.23;;;1.70;;
4391;SDS011;2210;51.938;8.488;2023-04-25T16:34:45;3.27;;;2.80;;
4391;SDS011;2210;51.938;8.488;2023-04-25T16:38:48;5.63;;;1.80;;
4391;SDS011;2210;51.938;8.488;2023-04-25T16:42:52;1.43;;;1.33;;
4391;SDS011;2210;51.938;8.488;2023-04-25T16:46:52;3.77;;;1.83;;
4391;SDS011;2210;51.938;8.488;2023-04-25T16:50:59;1.30;;;1.20;;
4391;SDS011;2210;51.938;8.488;2023-04-25T16:55:12;5.80;;;2.00;;
4391;SDS011;2210;51.938;8.488;2023-04-25T16:59:15;2.40;;;1.20;;
4391;SDS011;2210;51.938;8.488;2023-04-25T17:03:15;2.70;;;1.10;;
4391;SDS011;2210;51.938;8.488;2023-04-25T17:07:19;2.72;;;1.40;;
4391;SDS011;2210;51.938;8.488;2023-04-25T17:11:26;2.20;;;1.10;;
4391;SDS011;2210;51.938;8.488;2023-04-25T17:15:26;2.63;;;1.43;;
4391;SDS011;2210;51.938;8.488;2023-04-25T17:19:27;1.70;;;1.20;;
4391;SDS011;2210;51.938;8.488;2023-04-25T17:23:27;2.03;;;1.23;;
4391;SDS011;2210;51.938;8.488;2023-04-25T17:27:28;2.37;;;1.30;;
4391;SDS011;2210;51.938;8.488;2023-04-25T17:31:31;1.37;;;1.07;;
4391;SDS011;2210;51.938;8.488;2023-04-25T17:35:31;1.67;;;1.47;;
4391;SDS011;2210;51.938;8.488;2023-04-25T17:39:38;2.97;;;1.23;;
4391;SDS011;2210;51.938;8.488;2023-04-25T17:43:38;2.20;;;1.00;;
4391;SDS011;2210;51.938;8.488;2023-04-25T17:47:39;4.30;;;1.27;;
4391;SDS011;2210;51.938;8.488;2023-04-25T17:51:39;1.37;;;1.10;;
4391;SDS011;2210;51.938;8.488;2023-04-25T17:55:40;1.73;;;1.00;;
4391;SDS011;2210;51.938;8.488;2023-04-25T17:59:42;2.53;;;1.50;;
4391;SDS011;2210;51.938;8.488;2023-04-25T18:03:42;5.13;;;1.58;;
4391;SDS011;2210;51.938;8.488;2023-04-25T18:07:45;3.33;;;1.10;;
4391;SDS011;2210;51.938;8.488;2023-04-25T18:11:45;2.90;;;1.23;;
4391;SDS011;2210;51.938;8.488;2023-04-25T18:15:49;2.70;;;1.60;;
4391;SDS011;2210;51.938;8.488;2023-04-25T18:19:53;1.83;;;1.20;;
4391;SDS011;2210;51.938;8.488;2023-04-25T18:23:54;4.47;;;1.43;;
4391;SDS011;2210;51.938;8.488;2023-04-25T18:27:54;4.33;;;1.10;;
4391;SDS011;2210;51.938;8.488;2023-04-25T18:31:55;2.00;;;1.30;;
4391;SDS011;2210;51.938;8.488;2023-04-25T18:35:55;2.53;;;1.60;;
4391;SDS011;2210;51.938;8.488;2023-04-25T18:39:57;3.27;;;1.30;;
4391;SDS011;2210;51.938;8.488;2023-04-25T18:44:01;1.23;;;1.10;;
4391;SDS011;2210;51.938;8.488;2023-04-25T18:48:03;3.10;;;1.23;;
4391;SDS011;2210;51.938;8.488;2023-04-25T18:52:04;4.90;;;1.63;;
4391;SDS011;2210;51.938;8.488;2023-04-25T18:56:09;3.50;;;0.93;;
4391;SDS011;2210;51.938;8.488;2023-04-25T19:00:12;3.17;;;0.90;;
4391;SDS011;2210;51.938;8.488;2023-04-25T19:04:14;0.90;;;0.90;;
4391;SDS011;2210;51.938;8.488;2023-04-25T19:08:14;2.03;;;1.30;;
4391;SDS011;2210;51.938;8.488;2023-04-25T19:12:14;1.98;;;1.20;;
4391;SDS011;2210;51.938;8.488;2023-04-25T19:16:15;2.30;;;1.10;;
4391;SDS011;2210;51.938;8.488;2023-04-25T19:20:21;1.43;;;1.10;;
4391;SDS011;2210;51.938;8.488;2023-04-25T19:24:22;4.67;;;2.10;;
4391;SDS011;2210;51.938;8.488;2023-04-25T19:28:22;3.57;;;1.53;;
4391;SDS011;2210;51.938;8.488;2023-04-25T19:32:23;5.23;;;2.00;;
4391;SDS011;2210;51.938;8.488;2023-04-25T19:36:24;5.13;;;2.30;;
4391;SDS011;2210;51.938;8.488;2023-04-25T19:40:24;4.20;;;2.00;;
4391;SDS011;2210;51.938;8.488;2023-04-25T19:44:25;5.20;;;2.00;;
4391;SDS011;2210;51.938;8.488;2023-04-25T19:48:25;7.27;;;1.60;;
4391;SDS011;2210;51.938;8.488;2023-04-25T19:52:26;5.50;;;2.30;;
4391;SDS011;2210;51.938;8.488;2023-04-25T19:56:26;4.00;;;2.03;;
4391;SDS011;2210;51.938;8.488;2023-04-25T20:00:26;2.37;;;1.60;;
4391;SDS011;2210;51.938;8.488;2023-04-25T20:04:27;4.80;;;1.80;;
4391;SDS011;2210;51.938;8.488;2023-04-25T20:08:27;1.93;;;1.83;;
4391;SDS011;2210;51.938;8.488;2023-04-25T20:12:27;3.33;;;2.45;;
4391;SDS011;2210;51.938;8.488;2023-04-25T20:16:28;3.20;;;1.97;;
4391;SDS011;2210;51.938;8.488;2023-04-25T20:20:28;3.95;;;2.15;;
4391;SDS011;2210;51.938;8.488;2023-04-25T20:24:28;3.67;;;1.90;;
4391;SDS011;2210;51.938;8.488;2023-04-25T20:28:29;3.13;;;1.60;;
4391;SDS011;2210;51.938;8.488;2023-04-25T20:32:29;4.93;;;1.63;;
4391;SDS011;2210;51.938;8.488;2023-04-25T20:36:33;3.63;;;2.40;;
4391;SDS011;2210;51.938;8.488;2023-04-25T20:40:34;5.23;;;2.83;;
4391;SDS011;2210;51.938;8.488;2023-04-25T20:44:34;3.30;;;2.77;;
4391;SDS011;2210;51.938;8.488;2023-04-25T20:48:34;6.20;;;2.80;;
4391;SDS011;2210;51.938;8.488;2023-04-25T20:52:35;12.40;;;2.50;;
4391;SDS011;2210;51.938;8.488;2023-04-25T20:56:36;2.77;;;2.20;;
4391;SDS011;2210;51.938;8.488;2023-04-25T21:00:36;4.60;;;2.37;;
4391;SDS011;2210;51.938;8.488;2023-04-25T21:04:37;4.73;;;2.20;;
4391;SDS011;2210;51.938;8.488;2023-04-25T21:08:38;9.13;;;3.00;;
4391;SDS011;2210;51.938;8.488;2023-04-25T21:12:41;3.67;;;2.63;;
4391;SDS011;2210;51.938;8.488;2023-04-25T21:16:55;3.80;;;2.40;;
4391;SDS011;2210;51.938;8.488;2023-04-25T21:20:56;5.07;;;2.60;;
4391;SDS011;2210;51.938;8.488;2023-04-25T21:24:59;4.07;;;2.57;;
4391;SDS011;2210;51.938;8.488;2023-04-25T21:29:04;6.83;;;3.20;;
4391;SDS011;2210;51.938;8.488;2023-04-25T21:33:05;6.57;;;3.20;;
4391;SDS011;2210;51.938;8.488;2023-04-25T21:37:05;3.22;;;2.55;;
4391;SDS011;2210;51.938;8.488;2023-04-25T21:41:11;7.18;;;2.47;;
4391;SDS011;2210;51.938;8.488;2023-04-25T21:45:11;3.90;;;2.63;;
4391;SDS011;2210;51.938;8.488;2023-04-25T21:49:12;4.43;;;1.97;;
4391;SDS011;2210;51.938;8.488;2023-04-25T21:53:12;3.08;;;1.65;;
4391;SDS011;2210;51.938;8.488;2023-04-25T21:57:12;2.20;;;1.77;;
4391;SDS011;2210;51.938;8.488;2023-04-25T22:01:13;2.23;;;1.80;;
4391;SDS011;2210;51.938;8.488;2023-04-25T22:05:17;4.33;;;1.97;;
4391;SDS011;2210;51.938;8.488;2023-04-25T22:09:23;3.83;;;2.20;;
4391;SDS011;2210;51.938;8.488;2023-04-25T22:13:23;3.23;;;1.90;;
4391;SDS011;2210;51.938;8.488;2023-04-25T22:17:24;4.07;;;1.80;;
4391;SDS011;2210;51.938;8.488;2023-04-25T22:21:26;5.93;;;2.30;;
4391;SDS011;2210;51.938;8.488;2023-04-25T22:25:27;1.90;;;1.63;;
4391;SDS011;2210;51.938;8.488;2023-04-25T22:29:27;3.83;;;2.10;;
4391;SDS011;2210;51.938;8.488;2023-04-25T22:33:27;3.15;;;2.30;;
4391;SDS011;2210;51.938;8.488;2023-04-25T22:37:28;3.30;;;2.00;;
4391;SDS011;2210;51.938;8.488;2023-04-25T22:41:31;2.30;;;2.10;;
4391;SDS011;2210;51.938;8.488;2023-04-25T22:45:44;4.27;;;2.20;;
4391;SDS011;2210;51.938;8.488;2023-04-25T22:49:44;3.73;;;2.00;;
4391;SDS011;2210;51.938;8.488;2023-04-25T22:53:47;3.60;;;2.07;;
4391;SDS011;2210;51.938;8.488;2023-04-25T22:57:51;5.60;;;2.20;;
4391;SDS011;2210;51.938;8.488;2023-04-25T23:02:04;4.50;;;1.97;;
4391;SDS011;2210;51.938;8.488;2023-04-25T23:06:04;3.63;;;2.33;;
4391;SDS011;2210;51.938;8.488;2023-04-25T23:10:11;2.77;;;1.93;;
4391;SDS011;2210;51.938;8.488;2023-04-25T23:14:15;4.30;;;2.53;;
4391;SDS011;2210;51.938;8.488;2023-04-25T23:18:18;2.17;;;1.90;;
4391;SDS011;2210;51.938;8.488;2023-04-25T23:22:25;3.60;;;1.60;;
4391;SDS011;2210;51.938;8.488;2023-04-25T23:26:31;3.40;;;2.33;;
4391;SDS011;2210;51.938;8.488;2023-04-25T23:30:34;2.77;;;1.87;;
4391;SDS011;2210;51.938;8.488;2023-04-25T23:34:41;1.97;;;1.77;;
4391;SDS011;2210;51.938;8.488;2023-04-25T23:38:57;5.07;;;2.00;;
4391;SDS011;2210;51.938;8.488;2023-04-25T23:42:57;7.00;;;2.00;;
4391;SDS011;2210;51.938;8.488;2023-04-25T23:47:00;1.60;;;1.50;;
4391;SDS011;2210;51.938;8.488;2023-04-25T23:51:00;10.20;;;2.10;;
4391;SDS011;2210;51.938;8.488;2023-04-25T23:55:04;1.70;;;1.50;;
4391;SDS011;2210;51.938;8.488;2023-04-25T23:59:08;1.73;;;1.63;;
